sensor_id;sensor_type;location;lat;lon;timestamp;P1;durP1;ratioP1;P2;durP2;ratioP2
84161;SDS011;74285;52.372;12.924;2024-02-21T00:00:24;9.37;;;2.73;;
84161;SDS011;74285;52.372;12.924;2024-02-21T00:02:50;12.13;;;2.93;;
84161;SDS011;74285;52.372;12.924;2024-02-21T00:05:15;10.38;;;2.63;;
84161;SDS011;74285;52.372;12.924;2024-02-21T00:07:41;9.57;;;2.43;;
84161;SDS011;74285;52.372;12.924;2024-02-21T00:10:07;14.48;;;3.30;;
84161;SDS011;74285;52.372;12.924;2024-02-21T00:14:59;10.83;;;2.50;;
84161;SDS011;74285;52.372;12.924;2024-02-21T00:17:24;10.40;;;2.80;;
84161;SDS011;74285;52.372;12.924;2024-02-21T00:19:51;18.45;;;3.03;;
84161;SDS011;74285;52.372;12.924;2024-02-21T00:22:16;8.07;;;2.43;;
84161;SDS011;74285;52.372;12.924;2024-02-21T00:24:41;13.03;;;2.83;;
84161;SDS011;74285;52.372;12.924;2024-02-21T00:27:06;8.33;;;2.50;;
84161;SDS011;74285;52.372;12.924;2024-02-21T00:29:32;12.00;;;2.60;;
84161;SDS011;74285;52.372;12.924;2024-02-21T00:31:57;8.50;;;2.90;;
84161;SDS011;74285;52.372;12.924;2024-02-21T00:34:22;8.90;;;2.77;;
84161;SDS011;74285;52.372;12.924;2024-02-21T00:36:48;15.27;;;3.60;;
84161;SDS011;74285;52.372;12.924;2024-02-21T00:39:13;7.97;;;3.17;;
84161;SDS011;74285;52.372;12.924;2024-02-21T00:41:38;10.87;;;2.67;;
84161;SDS011;74285;52.372;12.924;2024-02-21T00:44:03;12.07;;;2.40;;
84161;SDS011;74285;52.372;12.924;2024-02-21T00:46:31;17.42;;;2.85;;
84161;SDS011;74285;52.372;12.924;2024-02-21T00:48:56;10.27;;;2.90;;
84161;SDS011;74285;52.372;12.924;2024-02-21T00:51:21;10.67;;;3.30;;
84161;SDS011;74285;52.372;12.924;2024-02-21T00:53:46;11.67;;;2.80;;
84161;SDS011;74285;52.372;12.924;2024-02-21T00:56:12;9.87;;;2.77;;
84161;SDS011;74285;52.372;12.924;2024-02-21T00:58:37;8.20;;;1.97;;
84161;SDS011;74285;52.372;12.924;2024-02-21T01:01:02;11.80;;;2.70;;
84161;SDS011;74285;52.372;12.924;2024-02-21T01:03:28;10.10;;;2.90;;
84161;SDS011;74285;52.372;12.924;2024-02-21T01:05:53;9.50;;;2.80;;
84161;SDS011;74285;52.372;12.924;2024-02-21T01:08:18;11.67;;;2.97;;
84161;SDS011;74285;52.372;12.924;2024-02-21T01:10:44;8.57;;;2.77;;
84161;SDS011;74285;52.372;12.924;2024-02-21T01:13:09;10.97;;;2.70;;
84161;SDS011;74285;52.372;12.924;2024-02-21T01:15:34;12.00;;;2.72;;
84161;SDS011;74285;52.372;12.924;2024-02-21T01:18:00;9.98;;;2.53;;
84161;SDS011;74285;52.372;12.924;2024-02-21T01:20:25;8.52;;;2.70;;
84161;SDS011;74285;52.372;12.924;2024-02-21T01:22:51;12.40;;;2.70;;
84161;SDS011;74285;52.372;12.924;2024-02-21T01:25:16;9.33;;;2.30;;
84161;SDS011;74285;52.372;12.924;2024-02-21T01:27:41;10.10;;;2.27;;
84161;SDS011;74285;52.372;12.924;2024-02-21T01:30:07;9.47;;;2.90;;
84161;SDS011;74285;52.372;12.924;2024-02-21T01:32:32;15.55;;;3.33;;
84161;SDS011;74285;52.372;12.924;2024-02-21T01:34:58;10.00;;;2.70;;
84161;SDS011;74285;52.372;12.924;2024-02-21T01:37:23;7.73;;;2.43;;
84161;SDS011;74285;52.372;12.924;2024-02-21T01:39:48;10.60;;;2.27;;
84161;SDS011;74285;52.372;12.924;2024-02-21T01:42:14;9.70;;;2.53;;
84161;SDS011;74285;52.372;12.924;2024-02-21T01:44:39;9.03;;;2.93;;
84161;SDS011;74285;52.372;12.924;2024-02-21T01:47:05;9.03;;;2.63;;
84161;SDS011;74285;52.372;12.924;2024-02-21T01:49:30;11.93;;;3.03;;
84161;SDS011;74285;52.372;12.924;2024-02-21T01:51:55;10.80;;;3.10;;
84161;SDS011;74285;52.372;12.924;2024-02-21T01:54:21;10.65;;;2.25;;
84161;SDS011;74285;52.372;12.924;2024-02-21T01:56:46;8.35;;;2.40;;
84161;SDS011;74285;52.372;12.924;2024-02-21T01:59:12;8.93;;;2.58;;
84161;SDS011;74285;52.372;12.924;2024-02-21T02:01:38;9.75;;;2.22;;
84161;SDS011;74285;52.372;12.924;2024-02-21T02:04:04;12.15;;;3.22;;
84161;SDS011;74285;52.372;12.924;2024-02-21T02:06:30;5.60;;;2.28;;
84161;SDS011;74285;52.372;12.924;2024-02-21T02:08:55;10.65;;;2.92;;
84161;SDS011;74285;52.372;12.924;2024-02-21T02:11:21;7.90;;;2.72;;
84161;SDS011;74285;52.372;12.924;2024-02-21T02:13:47;11.10;;;2.55;;
84161;SDS011;74285;52.372;12.924;2024-02-21T02:16:12;14.02;;;2.22;;
84161;SDS011;74285;52.372;12.924;2024-02-21T02:18:37;9.60;;;2.35;;
84161;SDS011;74285;52.372;12.924;2024-02-21T02:21:04;9.40;;;3.13;;
84161;SDS011;74285;52.372;12.924;2024-02-21T02:23:30;11.00;;;2.72;;
84161;SDS011;74285;52.372;12.924;2024-02-21T02:25:59;9.50;;;2.28;;
84161;SDS011;74285;52.372;12.924;2024-02-21T02:28:26;10.45;;;3.05;;
84161;SDS011;74285;52.372;12.924;2024-02-21T02:30:51;13.50;;;3.22;;
84161;SDS011;74285;52.372;12.924;2024-02-21T02:33:16;9.37;;;3.30;;
84161;SDS011;74285;52.372;12.924;2024-02-21T02:35:44;11.18;;;2.63;;
84161;SDS011;74285;52.372;12.924;2024-02-21T02:38:10;14.05;;;3.45;;
84161;SDS011;74285;52.372;12.924;2024-02-21T02:40:37;10.20;;;2.63;;
84161;SDS011;74285;52.372;12.924;2024-02-21T02:43:03;13.18;;;2.83;;
84161;SDS011;74285;52.372;12.924;2024-02-21T02:48:50;9.98;;;2.85;;
84161;SDS011;74285;52.372;12.924;2024-02-21T02:51:15;9.23;;;2.30;;
84161;SDS011;74285;52.372;12.924;2024-02-21T02:53:40;9.85;;;3.50;;
84161;SDS011;74285;52.372;12.924;2024-02-21T02:56:06;12.57;;;2.90;;
84161;SDS011;74285;52.372;12.924;2024-02-21T02:58:32;10.57;;;2.80;;
84161;SDS011;74285;52.372;12.924;2024-02-21T03:00:57;8.63;;;2.67;;
84161;SDS011;74285;52.372;12.924;2024-02-21T03:03:22;9.90;;;3.87;;
84161;SDS011;74285;52.372;12.924;2024-02-21T03:05:47;12.27;;;2.63;;
84161;SDS011;74285;52.372;12.924;2024-02-21T03:08:13;6.63;;;2.47;;
84161;SDS011;74285;52.372;12.924;2024-02-21T03:10:38;15.60;;;4.10;;
84161;SDS011;74285;52.372;12.924;2024-02-21T03:13:04;8.23;;;2.95;;
84161;SDS011;74285;52.372;12.924;2024-02-21T03:15:30;10.47;;;3.53;;
84161;SDS011;74285;52.372;12.924;2024-02-21T03:17:56;11.48;;;4.45;;
84161;SDS011;74285;52.372;12.924;2024-02-21T03:20:22;13.00;;;2.90;;
84161;SDS011;74285;52.372;12.924;2024-02-21T03:22:47;9.77;;;2.90;;
84161;SDS011;74285;52.372;12.924;2024-02-21T03:25:12;11.03;;;2.63;;
84161;SDS011;74285;52.372;12.924;2024-02-21T03:27:39;8.50;;;2.65;;
84161;SDS011;74285;52.372;12.924;2024-02-21T03:30:04;12.77;;;3.00;;
84161;SDS011;74285;52.372;12.924;2024-02-21T03:32:30;11.23;;;2.92;;
84161;SDS011;74285;52.372;12.924;2024-02-21T03:34:55;8.23;;;2.63;;
84161;SDS011;74285;52.372;12.924;2024-02-21T03:37:20;12.10;;;3.30;;
84161;SDS011;74285;52.372;12.924;2024-02-21T03:39:46;12.17;;;3.37;;
84161;SDS011;74285;52.372;12.924;2024-02-21T03:42:11;7.87;;;2.80;;
84161;SDS011;74285;52.372;12.924;2024-02-21T03:44:36;13.13;;;3.22;;
84161;SDS011;74285;52.372;12.924;2024-02-21T03:47:02;16.23;;;4.00;;
84161;SDS011;74285;52.372;12.924;2024-02-21T03:49:27;11.27;;;3.20;;
84161;SDS011;74285;52.372;12.924;2024-02-21T03:51:52;11.13;;;3.50;;
84161;SDS011;74285;52.372;12.924;2024-02-21T03:54:18;12.88;;;2.95;;
84161;SDS011;74285;52.372;12.924;2024-02-21T03:56:43;7.82;;;2.42;;
84161;SDS011;74285;52.372;12.924;2024-02-21T03:59:09;16.93;;;3.90;;
84161;SDS011;74285;52.372;12.924;2024-02-21T04:01:34;11.50;;;3.73;;
84161;SDS011;74285;52.372;12.924;2024-02-21T04:04:00;11.75;;;3.03;;
84161;SDS011;74285;52.372;12.924;2024-02-21T04:06:25;13.20;;;3.50;;
84161;SDS011;74285;52.372;12.924;2024-02-21T04:08:51;15.93;;;3.83;;
84161;SDS011;74285;52.372;12.924;2024-02-21T04:11:16;11.00;;;3.90;;
84161;SDS011;74285;52.372;12.924;2024-02-21T04:13:43;13.82;;;4.22;;
84161;SDS011;74285;52.372;12.924;2024-02-21T04:16:08;17.07;;;4.63;;
84161;SDS011;74285;52.372;12.924;2024-02-21T04:18:34;18.90;;;4.27;;
84161;SDS011;74285;52.372;12.924;2024-02-21T04:20:59;11.83;;;3.63;;
84161;SDS011;74285;52.372;12.924;2024-02-21T04:23:24;13.20;;;3.80;;
84161;SDS011;74285;52.372;12.924;2024-02-21T04:25:50;14.67;;;3.83;;
84161;SDS011;74285;52.372;12.924;2024-02-21T04:28:15;10.90;;;3.70;;
84161;SDS011;74285;52.372;12.924;2024-02-21T04:30:40;14.40;;;4.23;;
84161;SDS011;74285;52.372;12.924;2024-02-21T04:33:05;12.50;;;3.43;;
84161;SDS011;74285;52.372;12.924;2024-02-21T04:35:31;13.03;;;3.77;;
84161;SDS011;74285;52.372;12.924;2024-02-21T04:37:56;12.30;;;3.67;;
84161;SDS011;74285;52.372;12.924;2024-02-21T04:40:21;24.33;;;4.80;;
84161;SDS011;74285;52.372;12.924;2024-02-21T04:42:47;10.53;;;3.87;;
84161;SDS011;74285;52.372;12.924;2024-02-21T04:45:12;13.18;;;3.92;;
84161;SDS011;74285;52.372;12.924;2024-02-21T04:47:37;17.93;;;4.53;;
84161;SDS011;74285;52.372;12.924;2024-02-21T04:50:03;11.80;;;3.90;;
84161;SDS011;74285;52.372;12.924;2024-02-21T04:52:28;13.93;;;4.22;;
84161;SDS011;74285;52.372;12.924;2024-02-21T04:54:54;12.90;;;4.45;;
84161;SDS011;74285;52.372;12.924;2024-02-21T04:59:46;7.33;;;3.30;;
84161;SDS011;74285;52.372;12.924;2024-02-21T05:04:37;8.90;;;3.20;;
84161;SDS011;74285;52.372;12.924;2024-02-21T05:07:03;15.38;;;3.92;;
84161;SDS011;74285;52.372;12.924;2024-02-21T05:09:29;14.55;;;4.05;;
84161;SDS011;74285;52.372;12.924;2024-02-21T05:11:54;14.03;;;3.97;;
84161;SDS011;74285;52.372;12.924;2024-02-21T05:14:19;13.63;;;3.97;;
84161;SDS011;74285;52.372;12.924;2024-02-21T05:16:45;7.97;;;3.23;;
84161;SDS011;74285;52.372;12.924;2024-02-21T05:19:10;11.90;;;4.00;;
84161;SDS011;74285;52.372;12.924;2024-02-21T05:21:35;19.47;;;3.90;;
84161;SDS011;74285;52.372;12.924;2024-02-21T05:24:00;12.20;;;4.57;;
84161;SDS011;74285;52.372;12.924;2024-02-21T05:26:26;14.00;;;4.27;;
84161;SDS011;74285;52.372;12.924;2024-02-21T05:31:18;15.27;;;4.03;;
84161;SDS011;74285;52.372;12.924;2024-02-21T05:33:44;11.15;;;4.07;;
84161;SDS011;74285;52.372;12.924;2024-02-21T05:36:10;5.45;;;3.17;;
84161;SDS011;74285;52.372;12.924;2024-02-21T05:38:35;12.95;;;4.57;;
84161;SDS011;74285;52.372;12.924;2024-02-21T05:41:01;15.07;;;4.43;;
84161;SDS011;74285;52.372;12.924;2024-02-21T05:43:26;15.23;;;4.35;;
84161;SDS011;74285;52.372;12.924;2024-02-21T05:45:51;10.90;;;4.53;;
84161;SDS011;74285;52.372;12.924;2024-02-21T05:48:17;14.57;;;4.53;;
84161;SDS011;74285;52.372;12.924;2024-02-21T05:50:42;15.23;;;4.50;;
84161;SDS011;74285;52.372;12.924;2024-02-21T05:53:07;12.50;;;4.33;;
84161;SDS011;74285;52.372;12.924;2024-02-21T05:55:33;15.90;;;4.75;;
84161;SDS011;74285;52.372;12.924;2024-02-21T05:57:58;24.47;;;4.90;;
84161;SDS011;74285;52.372;12.924;2024-02-21T06:00:23;12.57;;;4.63;;
84161;SDS011;74285;52.372;12.924;2024-02-21T06:02:48;16.48;;;4.32;;
84161;SDS011;74285;52.372;12.924;2024-02-21T06:05:15;16.75;;;7.07;;
84161;SDS011;74285;52.372;12.924;2024-02-21T06:07:40;14.70;;;4.80;;
84161;SDS011;74285;52.372;12.924;2024-02-21T06:10:06;14.90;;;5.03;;
84161;SDS011;74285;52.372;12.924;2024-02-21T06:14:57;11.63;;;4.53;;
84161;SDS011;74285;52.372;12.924;2024-02-21T06:17:22;15.83;;;5.37;;
84161;SDS011;74285;52.372;12.924;2024-02-21T06:19:48;10.30;;;4.43;;
84161;SDS011;74285;52.372;12.924;2024-02-21T06:22:14;10.93;;;3.83;;
84161;SDS011;74285;52.372;12.924;2024-02-21T06:24:39;14.33;;;4.70;;
84161;SDS011;74285;52.372;12.924;2024-02-21T06:27:05;11.50;;;4.40;;
84161;SDS011;74285;52.372;12.924;2024-02-21T06:29:33;12.82;;;4.32;;
84161;SDS011;74285;52.372;12.924;2024-02-21T06:31:59;13.65;;;4.68;;
84161;SDS011;74285;52.372;12.924;2024-02-21T06:34:24;10.47;;;4.40;;
84161;SDS011;74285;52.372;12.924;2024-02-21T06:36:50;10.43;;;4.77;;
84161;SDS011;74285;52.372;12.924;2024-02-21T06:39:15;13.52;;;4.82;;
84161;SDS011;74285;52.372;12.924;2024-02-21T06:41:40;10.83;;;4.77;;
84161;SDS011;74285;52.372;12.924;2024-02-21T06:44:06;9.18;;;4.25;;
84161;SDS011;74285;52.372;12.924;2024-02-21T06:46:31;8.63;;;3.23;;
84161;SDS011;74285;52.372;12.924;2024-02-21T06:48:58;11.85;;;4.55;;
84161;SDS011;74285;52.372;12.924;2024-02-21T06:51:25;11.63;;;4.53;;
84161;SDS011;74285;52.372;12.924;2024-02-21T06:53:50;11.18;;;4.38;;
84161;SDS011;74285;52.372;12.924;2024-02-21T06:56:15;8.97;;;4.47;;
84161;SDS011;74285;52.372;12.924;2024-02-21T06:58:41;15.77;;;4.23;;
84161;SDS011;74285;52.372;12.924;2024-02-21T07:01:06;11.00;;;3.83;;
84161;SDS011;74285;52.372;12.924;2024-02-21T07:03:32;9.48;;;3.17;;
84161;SDS011;74285;52.372;12.924;2024-02-21T07:05:57;9.53;;;3.57;;
84161;SDS011;74285;52.372;12.924;2024-02-21T07:08:22;8.93;;;3.77;;
84161;SDS011;74285;52.372;12.924;2024-02-21T07:10:47;7.70;;;3.17;;
84161;SDS011;74285;52.372;12.924;2024-02-21T07:13:13;16.40;;;3.70;;
84161;SDS011;74285;52.372;12.924;2024-02-21T07:15:40;9.32;;;3.63;;
84161;SDS011;74285;52.372;12.924;2024-02-21T07:18:06;6.38;;;2.15;;
84161;SDS011;74285;52.372;12.924;2024-02-21T07:20:31;9.50;;;3.53;;
84161;SDS011;74285;52.372;12.924;2024-02-21T07:22:58;14.38;;;3.70;;
84161;SDS011;74285;52.372;12.924;2024-02-21T07:25:23;8.97;;;4.23;;
84161;SDS011;74285;52.372;12.924;2024-02-21T07:27:49;8.77;;;3.10;;
84161;SDS011;74285;52.372;12.924;2024-02-21T07:30:14;11.40;;;3.73;;
84161;SDS011;74285;52.372;12.924;2024-02-21T07:32:39;9.90;;;3.30;;
84161;SDS011;74285;52.372;12.924;2024-02-21T07:35:05;9.60;;;3.00;;
84161;SDS011;74285;52.372;12.924;2024-02-21T07:37:30;6.78;;;3.30;;
84161;SDS011;74285;52.372;12.924;2024-02-21T07:39:57;10.87;;;3.47;;
84161;SDS011;74285;52.372;12.924;2024-02-21T07:42:22;7.93;;;4.03;;
84161;SDS011;74285;52.372;12.924;2024-02-21T07:44:47;10.63;;;3.77;;
84161;SDS011;74285;52.372;12.924;2024-02-21T07:47:13;15.23;;;4.17;;
84161;SDS011;74285;52.372;12.924;2024-02-21T07:49:42;13.77;;;4.80;;
84161;SDS011;74285;52.372;12.924;2024-02-21T07:52:11;15.57;;;4.88;;
84161;SDS011;74285;52.372;12.924;2024-02-21T07:54:36;10.73;;;3.53;;
84161;SDS011;74285;52.372;12.924;2024-02-21T07:57:01;8.60;;;3.93;;
84161;SDS011;74285;52.372;12.924;2024-02-21T07:59:27;16.52;;;4.50;;
84161;SDS011;74285;52.372;12.924;2024-02-21T08:01:55;10.70;;;4.70;;
84161;SDS011;74285;52.372;12.924;2024-02-21T08:04:21;16.38;;;4.82;;
84161;SDS011;74285;52.372;12.924;2024-02-21T08:06:50;12.57;;;4.17;;
84161;SDS011;74285;52.372;12.924;2024-02-21T08:09:18;9.13;;;4.70;;
84161;SDS011;74285;52.372;12.924;2024-02-21T08:11:43;11.13;;;4.30;;
84161;SDS011;74285;52.372;12.924;2024-02-21T08:14:10;14.00;;;4.37;;
84161;SDS011;74285;52.372;12.924;2024-02-21T08:16:36;13.65;;;4.60;;
84161;SDS011;74285;52.372;12.924;2024-02-21T08:19:02;10.00;;;4.20;;
84161;SDS011;74285;52.372;12.924;2024-02-21T08:21:29;13.98;;;4.38;;
84161;SDS011;74285;52.372;12.924;2024-02-21T08:23:54;10.63;;;4.70;;
84161;SDS011;74285;52.372;12.924;2024-02-21T08:26:20;14.73;;;4.50;;
84161;SDS011;74285;52.372;12.924;2024-02-21T08:28:45;12.40;;;5.17;;
84161;SDS011;74285;52.372;12.924;2024-02-21T08:31:10;10.97;;;4.27;;
84161;SDS011;74285;52.372;12.924;2024-02-21T08:33:35;8.20;;;3.97;;
84161;SDS011;74285;52.372;12.924;2024-02-21T08:36:01;13.07;;;4.90;;
84161;SDS011;74285;52.372;12.924;2024-02-21T08:38:26;13.55;;;5.50;;
84161;SDS011;74285;52.372;12.924;2024-02-21T08:40:51;12.23;;;4.77;;
84161;SDS011;74285;52.372;12.924;2024-02-21T08:43:17;11.30;;;4.77;;
84161;SDS011;74285;52.372;12.924;2024-02-21T08:45:42;11.67;;;4.63;;
84161;SDS011;74285;52.372;12.924;2024-02-21T08:48:07;9.23;;;3.60;;
84161;SDS011;74285;52.372;12.924;2024-02-21T08:50:33;13.35;;;5.10;;
84161;SDS011;74285;52.372;12.924;2024-02-21T08:52:58;12.13;;;5.47;;
84161;SDS011;74285;52.372;12.924;2024-02-21T08:55:23;13.00;;;5.30;;
84161;SDS011;74285;52.372;12.924;2024-02-21T08:57:49;13.17;;;5.03;;
84161;SDS011;74285;52.372;12.924;2024-02-21T09:00:14;14.23;;;5.83;;
84161;SDS011;74285;52.372;12.924;2024-02-21T09:02:40;11.50;;;4.80;;
84161;SDS011;74285;52.372;12.924;2024-02-21T09:05:07;13.05;;;5.22;;
84161;SDS011;74285;52.372;12.924;2024-02-21T09:07:33;11.93;;;4.50;;
84161;SDS011;74285;52.372;12.924;2024-02-21T09:09:58;14.37;;;5.07;;
84161;SDS011;74285;52.372;12.924;2024-02-21T09:12:23;16.93;;;5.13;;
84161;SDS011;74285;52.372;12.924;2024-02-21T09:14:49;10.03;;;4.33;;
84161;SDS011;74285;52.372;12.924;2024-02-21T09:17:15;13.73;;;4.47;;
84161;SDS011;74285;52.372;12.924;2024-02-21T09:19:42;10.75;;;3.65;;
84161;SDS011;74285;52.372;12.924;2024-02-21T09:22:07;11.30;;;4.00;;
84161;SDS011;74285;52.372;12.924;2024-02-21T09:24:32;13.70;;;5.33;;
84161;SDS011;74285;52.372;12.924;2024-02-21T09:26:58;12.10;;;5.77;;
84161;SDS011;74285;52.372;12.924;2024-02-21T09:29:23;14.23;;;6.67;;
84161;SDS011;74285;52.372;12.924;2024-02-21T09:31:48;19.07;;;7.53;;
84161;SDS011;74285;52.372;12.924;2024-02-21T09:34:14;12.35;;;5.10;;
84161;SDS011;74285;52.372;12.924;2024-02-21T09:36:40;17.08;;;6.03;;
84161;SDS011;74285;52.372;12.924;2024-02-21T09:39:06;13.70;;;4.67;;
84161;SDS011;74285;52.372;12.924;2024-02-21T09:41:31;18.93;;;8.30;;
84161;SDS011;74285;52.372;12.924;2024-02-21T09:51:54;8.70;;;4.03;;
84161;SDS011;74285;52.372;12.924;2024-02-21T09:54:20;14.73;;;5.45;;
84161;SDS011;74285;52.372;12.924;2024-02-21T09:56:47;12.23;;;4.80;;
84161;SDS011;74285;52.372;12.924;2024-02-21T09:59:13;16.20;;;5.13;;
84161;SDS011;74285;52.372;12.924;2024-02-21T10:01:40;9.30;;;4.30;;
84161;SDS011;74285;52.372;12.924;2024-02-21T10:04:07;15.48;;;6.43;;
84161;SDS011;74285;52.372;12.924;2024-02-21T10:06:32;11.93;;;4.93;;
84161;SDS011;74285;52.372;12.924;2024-02-21T10:08:58;10.03;;;5.17;;
84161;SDS011;74285;52.372;12.924;2024-02-21T10:11:24;13.65;;;4.65;;
84161;SDS011;74285;52.372;12.924;2024-02-21T10:13:49;11.05;;;5.20;;
84161;SDS011;74285;52.372;12.924;2024-02-21T10:16:16;8.38;;;4.53;;
84161;SDS011;74285;52.372;12.924;2024-02-21T10:18:41;10.63;;;4.30;;
84161;SDS011;74285;52.372;12.924;2024-02-21T10:21:07;14.30;;;5.27;;
84161;SDS011;74285;52.372;12.924;2024-02-21T10:26:11;10.40;;;4.45;;
84161;SDS011;74285;52.372;12.924;2024-02-21T10:28:37;9.38;;;4.68;;
84161;SDS011;74285;52.372;12.924;2024-02-21T10:31:06;13.23;;;5.30;;
84161;SDS011;74285;52.372;12.924;2024-02-21T10:33:34;11.55;;;3.97;;
84161;SDS011;74285;52.372;12.924;2024-02-21T10:36:06;9.17;;;4.07;;
84161;SDS011;74285;52.372;12.924;2024-02-21T10:38:33;13.25;;;4.32;;
84161;SDS011;74285;52.372;12.924;2024-02-21T10:40:59;10.30;;;4.25;;
84161;SDS011;74285;52.372;12.924;2024-02-21T10:43:28;10.27;;;4.30;;
84161;SDS011;74285;52.372;12.924;2024-02-21T10:45:55;10.05;;;4.10;;
84161;SDS011;74285;52.372;12.924;2024-02-21T10:48:29;8.43;;;4.15;;
84161;SDS011;74285;52.372;12.924;2024-02-21T10:51:03;8.80;;;4.32;;
84161;SDS011;74285;52.372;12.924;2024-02-21T10:53:44;14.43;;;4.03;;
84161;SDS011;74285;52.372;12.924;2024-02-21T10:58:49;8.57;;;3.80;;
84161;SDS011;74285;52.372;12.924;2024-02-21T11:01:14;6.18;;;3.20;;
84161;SDS011;74285;52.372;12.924;2024-02-21T11:03:41;9.05;;;4.03;;
84161;SDS011;74285;52.372;12.924;2024-02-21T11:06:07;11.73;;;3.60;;
84161;SDS011;74285;52.372;12.924;2024-02-21T11:08:33;7.78;;;3.65;;
84161;SDS011;74285;52.372;12.924;2024-02-21T11:10:58;8.10;;;3.23;;
84161;SDS011;74285;52.372;12.924;2024-02-21T11:13:31;7.32;;;3.88;;
84161;SDS011;74285;52.372;12.924;2024-02-21T11:18:36;7.20;;;2.95;;
84161;SDS011;74285;52.372;12.924;2024-02-21T11:21:04;6.43;;;4.22;;
84161;SDS011;74285;52.372;12.924;2024-02-21T11:23:30;8.70;;;3.17;;
84161;SDS011;74285;52.372;12.924;2024-02-21T11:26:05;6.18;;;3.30;;
84161;SDS011;74285;52.372;12.924;2024-02-21T11:28:33;8.18;;;4.15;;
84161;SDS011;74285;52.372;12.924;2024-02-21T11:31:12;10.82;;;2.97;;
84161;SDS011;74285;52.372;12.924;2024-02-21T11:33:41;7.93;;;3.03;;
84161;SDS011;74285;52.372;12.924;2024-02-21T11:36:09;7.95;;;2.80;;
84161;SDS011;74285;52.372;12.924;2024-02-21T11:38:35;10.07;;;2.75;;
84161;SDS011;74285;52.372;12.924;2024-02-21T11:41:00;8.90;;;3.13;;
84161;SDS011;74285;52.372;12.924;2024-02-21T11:43:25;6.80;;;3.03;;
84161;SDS011;74285;52.372;12.924;2024-02-21T11:45:58;8.18;;;3.20;;
84161;SDS011;74285;52.372;12.924;2024-02-21T11:48:24;4.88;;;2.55;;
84161;SDS011;74285;52.372;12.924;2024-02-21T11:50:54;9.82;;;3.28;;
84161;SDS011;74285;52.372;12.924;2024-02-21T11:53:20;8.75;;;3.40;;
84161;SDS011;74285;52.372;12.924;2024-02-21T11:55:45;7.47;;;2.80;;
84161;SDS011;74285;52.372;12.924;2024-02-21T11:58:11;6.88;;;2.55;;
84161;SDS011;74285;52.372;12.924;2024-02-21T12:00:37;7.85;;;3.13;;
84161;SDS011;74285;52.372;12.924;2024-02-21T12:03:04;6.87;;;2.70;;
84161;SDS011;74285;52.372;12.924;2024-02-21T12:05:29;6.65;;;2.75;;
84161;SDS011;74285;52.372;12.924;2024-02-21T12:07:54;7.40;;;2.17;;
84161;SDS011;74285;52.372;12.924;2024-02-21T12:10:23;7.45;;;3.03;;
84161;SDS011;74285;52.372;12.924;2024-02-21T12:12:48;5.87;;;2.20;;
84161;SDS011;74285;52.372;12.924;2024-02-21T12:15:15;7.95;;;2.50;;
84161;SDS011;74285;52.372;12.924;2024-02-21T12:17:43;7.22;;;3.67;;
84161;SDS011;74285;52.372;12.924;2024-02-21T12:20:08;4.57;;;1.97;;
84161;SDS011;74285;52.372;12.924;2024-02-21T12:22:37;7.97;;;2.67;;
84161;SDS011;74285;52.372;12.924;2024-02-21T12:25:03;7.43;;;2.65;;
84161;SDS011;74285;52.372;12.924;2024-02-21T12:27:30;7.13;;;3.35;;
84161;SDS011;74285;52.372;12.924;2024-02-21T12:29:55;6.53;;;3.10;;
84161;SDS011;74285;52.372;12.924;2024-02-21T12:32:21;7.97;;;3.13;;
84161;SDS011;74285;52.372;12.924;2024-02-21T12:34:46;5.80;;;2.93;;
84161;SDS011;74285;52.372;12.924;2024-02-21T12:37:11;7.00;;;2.60;;
84161;SDS011;74285;52.372;12.924;2024-02-21T12:39:40;6.82;;;2.70;;
84161;SDS011;74285;52.372;12.924;2024-02-21T12:42:06;5.03;;;2.40;;
84161;SDS011;74285;52.372;12.924;2024-02-21T12:44:34;9.70;;;2.75;;
84161;SDS011;74285;52.372;12.924;2024-02-21T12:49:25;5.37;;;2.20;;
84161;SDS011;74285;52.372;12.924;2024-02-21T12:51:54;5.38;;;2.10;;
84161;SDS011;74285;52.372;12.924;2024-02-21T12:54:20;4.95;;;2.03;;
84161;SDS011;74285;52.372;12.924;2024-02-21T12:56:46;2.92;;;1.95;;
84161;SDS011;74285;52.372;12.924;2024-02-21T12:59:11;11.43;;;2.40;;
84161;SDS011;74285;52.372;12.924;2024-02-21T13:04:02;6.65;;;2.03;;
84161;SDS011;74285;52.372;12.924;2024-02-21T13:06:28;4.90;;;2.72;;
84161;SDS011;74285;52.372;12.924;2024-02-21T13:08:53;4.87;;;2.27;;
84161;SDS011;74285;52.372;12.924;2024-02-21T13:11:18;6.27;;;2.70;;
84161;SDS011;74285;52.372;12.924;2024-02-21T13:13:44;5.10;;;2.72;;
84161;SDS011;74285;52.372;12.924;2024-02-21T13:16:09;6.90;;;2.77;;
84161;SDS011;74285;52.372;12.924;2024-02-21T13:21:02;7.38;;;2.22;;
84161;SDS011;74285;52.372;12.924;2024-02-21T13:25:53;7.23;;;1.97;;
84161;SDS011;74285;52.372;12.924;2024-02-21T13:28:18;4.20;;;1.50;;
84161;SDS011;74285;52.372;12.924;2024-02-21T13:30:44;4.87;;;1.83;;
84161;SDS011;74285;52.372;12.924;2024-02-21T13:33:09;6.10;;;2.00;;
84161;SDS011;74285;52.372;12.924;2024-02-21T13:35:35;6.18;;;1.80;;
84161;SDS011;74285;52.372;12.924;2024-02-21T13:38:01;4.40;;;2.10;;
84161;SDS011;74285;52.372;12.924;2024-02-21T13:42:52;5.20;;;2.20;;
84161;SDS011;74285;52.372;12.924;2024-02-21T13:45:19;4.05;;;2.03;;
84161;SDS011;74285;52.372;12.924;2024-02-21T13:50:09;9.20;;;2.00;;
84161;SDS011;74285;52.372;12.924;2024-02-21T13:52:45;4.68;;;1.95;;
84161;SDS011;74285;52.372;12.924;2024-02-21T13:55:11;6.32;;;2.03;;
84161;SDS011;74285;52.372;12.924;2024-02-21T13:57:36;4.40;;;2.03;;
84161;SDS011;74285;52.372;12.924;2024-02-21T14:00:02;5.93;;;2.13;;
84161;SDS011;74285;52.372;12.924;2024-02-21T14:02:28;5.78;;;1.70;;
84161;SDS011;74285;52.372;12.924;2024-02-21T14:04:53;6.10;;;1.70;;
84161;SDS011;74285;52.372;12.924;2024-02-21T14:07:19;4.97;;;1.67;;
84161;SDS011;74285;52.372;12.924;2024-02-21T14:12:10;3.10;;;1.93;;
84161;SDS011;74285;52.372;12.924;2024-02-21T14:14:35;2.53;;;1.23;;
84161;SDS011;74285;52.372;12.924;2024-02-21T14:17:01;3.50;;;1.88;;
84161;SDS011;74285;52.372;12.924;2024-02-21T14:19:28;4.25;;;1.50;;
84161;SDS011;74285;52.372;12.924;2024-02-21T14:21:53;3.97;;;1.37;;
84161;SDS011;74285;52.372;12.924;2024-02-21T14:24:19;2.00;;;1.15;;
84161;SDS011;74285;52.372;12.924;2024-02-21T14:26:44;4.27;;;1.33;;
84161;SDS011;74285;52.372;12.924;2024-02-21T14:29:09;2.03;;;1.30;;
84161;SDS011;74285;52.372;12.924;2024-02-21T14:31:35;4.47;;;1.30;;
84161;SDS011;74285;52.372;12.924;2024-02-21T14:34:00;7.20;;;1.90;;
84161;SDS011;74285;52.372;12.924;2024-02-21T14:36:27;3.28;;;1.48;;
84161;SDS011;74285;52.372;12.924;2024-02-21T14:38:52;3.00;;;1.27;;
84161;SDS011;74285;52.372;12.924;2024-02-21T14:41:18;6.05;;;1.75;;
84161;SDS011;74285;52.372;12.924;2024-02-21T14:43:43;3.33;;;1.58;;
84161;SDS011;74285;52.372;12.924;2024-02-21T14:46:08;3.97;;;1.70;;
84161;SDS011;74285;52.372;12.924;2024-02-21T14:48:34;4.05;;;1.98;;
84161;SDS011;74285;52.372;12.924;2024-02-21T14:50:59;4.72;;;1.70;;
84161;SDS011;74285;52.372;12.924;2024-02-21T14:53:25;5.88;;;2.17;;
84161;SDS011;74285;52.372;12.924;2024-02-21T14:55:50;4.60;;;2.20;;
84161;SDS011;74285;52.372;12.924;2024-02-21T14:58:18;4.88;;;1.98;;
84161;SDS011;74285;52.372;12.924;2024-02-21T15:00:44;7.32;;;1.80;;
84161;SDS011;74285;52.372;12.924;2024-02-21T15:03:11;4.03;;;1.83;;
84161;SDS011;74285;52.372;12.924;2024-02-21T15:05:36;5.40;;;2.00;;
84161;SDS011;74285;52.372;12.924;2024-02-21T15:08:04;5.70;;;1.80;;